Ghena — 3FAV5 — position and weather

sailwx.info

Track history (hours):
 
Tides and Currents Weather Stations Pressure Air Temp Water Temp Dewpoint Dewpoint Depression Visibility Wind Speed Wind Dir Waves Ship Positions

Ghena

Last reported at 2018-Jun-14 00:39 UTC. Time now 2018-Jun-24 05:14 UTC.
Position N 40°50' E 029°14'.
Warning: this ship's position is 10 days out of date.

Length 190 m; draft 7.5 m.

Type: Cargo ship. MMSI: 352245000.

Date/timePositionNaut miles runAvg speedWind from/ knotsBaromVisibWave heightAir tempDewpointWater temp
2018-Jun-14 00:39N 40°50' E 029°14'0 0.0
2018-Jun-13 21:06N 40°50' E 029°14'0 0.0
2018-Jun-13 04:35N 40°50' E 029°14'0 0.0
2018-Jun-13 04:05N 40°50' E 029°14'  
2018-Jun-10 04:38N 40°50' E 029°14'5 0.2
2018-Jun-09 03:54N 40°46' E 029°10'4 9.4
2018-Jun-09 03:27N 40°43' E 029°05'614.2
2018-Jun-09 03:00N 40°43' E 028°57'712.7
2018-Jun-09 02:28N 40°44' E 028°48'913.9
2018-Jun-09 01:48N 40°43' E 028°36'1314.0
2018-Jun-09 00:53N 40°44' E 028°19'411.5
2018-Jun-09 00:30N 40°47' E 028°14'713.7
2018-Jun-09 00:00N 40°46' E 028°06'913.6
2018-Jun-08 23:21N 40°44' E 027°54'9712.1
2018-Jun-08 15:19N 39°58' E 026°01'12612.9
2018-Jun-08 05:32N 37°54' E 025°34'014.5
2018-Jun-08 05:30N 37°53' E 025°35'714.0
2018-Jun-08 05:00N 37°47' E 025°39'713.9
2018-Jun-08 04:30N 37°41' E 025°44'1414.1
2018-Jun-08 03:31N 37°29' E 025°52'014.0
2018-Jun-08 03:30N 37°29' E 025°52'21013.8
2018-Jun-07 12:15N 35°06' E 029°03'314.4
2018-Jun-07 12:00N 35°04' E 029°06'5114.3
2018-Jun-07 08:28N 34°41' E 030°01'11510.1
2018-Jun-06 21:01N 33°46' E 032°04'0 1.0
2018-Jun-06 20:45N 33°46' E 032°05'0 0.9
2018-Jun-06 20:20N 33°47' E 032°05'4 0.9
2018-Jun-06 16:04N 33°50' E 032°06'28 3.5
2018-Jun-06 07:53N 33°43' E 032°39'0 0.3
2018-Jun-06 07:30N 33°44' E 032°39'0 0.2
2018-Jun-06 06:53N 33°43' E 032°39'0 0.2
2018-Jun-06 06:30N 33°43' E 032°39'1 0.2
2018-Jun-06 00:47N 33°43' E 032°40'1 0.5
2018-Jun-05 22:59N 33°44' E 032°41'1 0.7
2018-Jun-05 22:10N 33°44' E 032°41'14 0.7
2018-Jun-05 00:46N 33°44' E 032°25'  
Track history (hours):
 
Tides and Currents Weather Stations Pressure Air Temp Water Temp Dewpoint Dewpoint Depression Visibility Wind Speed Wind Dir Waves Ship Positions

Ghena

Last reported at 2018-Jun-14 00:39 UTC. Time now 2018-Jun-24 05:14 UTC.
Position N 40°50' E 029°14'.
Warning: this ship's position is 10 days out of date.

Length 190 m; draft 7.5 m.

Type: Cargo ship. MMSI: 352245000.

Date/timePositionNaut miles runAvg speedWind from/ knotsBaromVisibWave heightAir tempDewpointWater temp
2018-Jun-14 00:39N 40°50' E 029°14'0 0.0
2018-Jun-13 21:06N 40°50' E 029°14'0 0.0
2018-Jun-13 04:35N 40°50' E 029°14'0 0.0
2018-Jun-13 04:05N 40°50' E 029°14'  
2018-Jun-10 04:38N 40°50' E 029°14'5 0.2
2018-Jun-09 03:54N 40°46' E 029°10'4 9.4
2018-Jun-09 03:27N 40°43' E 029°05'614.2
2018-Jun-09 03:00N 40°43' E 028°57'712.7
2018-Jun-09 02:28N 40°44' E 028°48'913.9
2018-Jun-09 01:48N 40°43' E 028°36'1314.0
2018-Jun-09 00:53N 40°44' E 028°19'411.5
2018-Jun-09 00:30N 40°47' E 028°14'713.7
2018-Jun-09 00:00N 40°46' E 028°06'913.6
2018-Jun-08 23:21N 40°44' E 027°54'9712.1
2018-Jun-08 15:19N 39°58' E 026°01'12612.9
2018-Jun-08 05:32N 37°54' E 025°34'014.5
2018-Jun-08 05:30N 37°53' E 025°35'714.0
2018-Jun-08 05:00N 37°47' E 025°39'713.9
2018-Jun-08 04:30N 37°41' E 025°44'1414.1
2018-Jun-08 03:31N 37°29' E 025°52'014.0
2018-Jun-08 03:30N 37°29' E 025°52'21013.8
2018-Jun-07 12:15N 35°06' E 029°03'314.4
2018-Jun-07 12:00N 35°04' E 029°06'5114.3
2018-Jun-07 08:28N 34°41' E 030°01'11510.1
2018-Jun-06 21:01N 33°46' E 032°04'0 1.0
2018-Jun-06 20:45N 33°46' E 032°05'0 0.9
2018-Jun-06 20:20N 33°47' E 032°05'4 0.9
2018-Jun-06 16:04N 33°50' E 032°06'28 3.5
2018-Jun-06 07:53N 33°43' E 032°39'0 0.3
2018-Jun-06 07:30N 33°44' E 032°39'0 0.2
2018-Jun-06 06:53N 33°43' E 032°39'0 0.2
2018-Jun-06 06:30N 33°43' E 032°39'1 0.2
2018-Jun-06 00:47N 33°43' E 032°40'1 0.5
2018-Jun-05 22:59N 33°44' E 032°41'1 0.7
2018-Jun-05 22:10N 33°44' E 032°41'14 0.7
2018-Jun-05 00:46N 33°44' E 032°25'  

Dump ship's entire track history